sensor_id;sensor_type;location;lat;lon;timestamp;temperature;humidity
16663;DHT22;8445;51.270;9.434;2023-08-06T00:00:29;13.70;99.90
16663;DHT22;8445;51.270;9.434;2023-08-06T00:02:55;13.70;99.90
16663;DHT22;8445;51.270;9.434;2023-08-06T00:05:21;13.80;99.90
16663;DHT22;8445;51.270;9.434;2023-08-06T00:07:47;13.80;99.90
16663;DHT22;8445;51.270;9.434;2023-08-06T00:10:14;13.80;99.90
16663;DHT22;8445;51.270;9.434;2023-08-06T00:12:40;13.70;99.90
16663;DHT22;8445;51.270;9.434;2023-08-06T00:15:06;13.70;99.90
16663;DHT22;8445;51.270;9.434;2023-08-06T00:17:36;13.70;99.90
16663;DHT22;8445;51.270;9.434;2023-08-06T00:20:03;13.70;99.90
16663;DHT22;8445;51.270;9.434;2023-08-06T00:22:36;13.70;99.90
16663;DHT22;8445;51.270;9.434;2023-08-06T00:25:03;13.70;99.90
16663;DHT22;8445;51.270;9.434;2023-08-06T00:27:31;13.70;99.90
16663;DHT22;8445;51.270;9.434;2023-08-06T00:29:58;13.60;99.90
16663;DHT22;8445;51.270;9.434;2023-08-06T00:32:24;13.60;99.90
16663;DHT22;8445;51.270;9.434;2023-08-06T00:34:50;13.60;99.90
16663;DHT22;8445;51.270;9.434;2023-08-06T00:37:19;13.60;99.90
16663;DHT22;8445;51.270;9.434;2023-08-06T00:39:45;13.60;99.90
16663;DHT22;8445;51.270;9.434;2023-08-06T00:42:12;13.60;99.90
16663;DHT22;8445;51.270;9.434;2023-08-06T00:44:38;13.60;99.90
16663;DHT22;8445;51.270;9.434;2023-08-06T00:47:07;13.60;99.90
16663;DHT22;8445;51.270;9.434;2023-08-06T00:49:35;13.60;99.90
16663;DHT22;8445;51.270;9.434;2023-08-06T00:52:05;13.60;99.90
16663;DHT22;8445;51.270;9.434;2023-08-06T00:54:36;13.60;99.90
16663;DHT22;8445;51.270;9.434;2023-08-06T00:57:03;13.60;99.90
16663;DHT22;8445;51.270;9.434;2023-08-06T00:59:32;13.60;99.90
16663;DHT22;8445;51.270;9.434;2023-08-06T01:01:59;13.50;99.90
16663;DHT22;8445;51.270;9.434;2023-08-06T01:04:25;13.50;99.90
16663;DHT22;8445;51.270;9.434;2023-08-06T01:07:02;13.40;99.90
16663;DHT22;8445;51.270;9.434;2023-08-06T01:13:23;13.40;99.90
16663;DHT22;8445;51.270;9.434;2023-08-06T01:15:55;13.40;99.90
16663;DHT22;8445;51.270;9.434;2023-08-06T01:18:26;13.50;99.90
16663;DHT22;8445;51.270;9.434;2023-08-06T01:20:52;13.50;99.90
16663;DHT22;8445;51.270;9.434;2023-08-06T01:23:19;13.60;99.90
16663;DHT22;8445;51.270;9.434;2023-08-06T01:26:10;13.60;99.90
16663;DHT22;8445;51.270;9.434;2023-08-06T01:28:59;13.60;99.90
16663;DHT22;8445;51.270;9.434;2023-08-06T01:31:33;13.60;99.90
16663;DHT22;8445;51.270;9.434;2023-08-06T01:34:06;13.60;99.90
16663;DHT22;8445;51.270;9.434;2023-08-06T01:36:35;13.70;99.90
16663;DHT22;8445;51.270;9.434;2023-08-06T01:39:02;13.70;99.90
16663;DHT22;8445;51.270;9.434;2023-08-06T01:41:28;13.70;99.90
16663;DHT22;8445;51.270;9.434;2023-08-06T01:43:54;13.70;99.90
16663;DHT22;8445;51.270;9.434;2023-08-06T01:46:20;13.80;99.90
16663;DHT22;8445;51.270;9.434;2023-08-06T01:48:45;13.80;99.90
16663;DHT22;8445;51.270;9.434;2023-08-06T01:51:11;13.80;99.90
16663;DHT22;8445;51.270;9.434;2023-08-06T01:53:37;13.90;99.90
16663;DHT22;8445;51.270;9.434;2023-08-06T01:56:03;13.90;99.90
16663;DHT22;8445;51.270;9.434;2023-08-06T01:58:29;13.90;99.90
16663;DHT22;8445;51.270;9.434;2023-08-06T02:00:55;14.00;99.90
16663;DHT22;8445;51.270;9.434;2023-08-06T02:03:22;13.90;99.90
16663;DHT22;8445;51.270;9.434;2023-08-06T02:05:48;13.90;99.90
16663;DHT22;8445;51.270;9.434;2023-08-06T02:08:13;13.80;99.90
16663;DHT22;8445;51.270;9.434;2023-08-06T02:10:39;13.80;99.90
16663;DHT22;8445;51.270;9.434;2023-08-06T02:13:07;13.80;99.90
16663;DHT22;8445;51.270;9.434;2023-08-06T02:15:33;13.70;99.90
16663;DHT22;8445;51.270;9.434;2023-08-06T02:17:58;13.70;99.90
16663;DHT22;8445;51.270;9.434;2023-08-06T02:20:24;13.60;99.90
16663;DHT22;8445;51.270;9.434;2023-08-06T02:22:50;13.50;99.90
16663;DHT22;8445;51.270;9.434;2023-08-06T02:25:16;13.40;99.90
16663;DHT22;8445;51.270;9.434;2023-08-06T02:27:42;13.30;99.90
16663;DHT22;8445;51.270;9.434;2023-08-06T02:30:08;13.30;99.90
16663;DHT22;8445;51.270;9.434;2023-08-06T02:32:34;13.20;99.90
16663;DHT22;8445;51.270;9.434;2023-08-06T02:35:02;13.30;99.90
16663;DHT22;8445;51.270;9.434;2023-08-06T02:37:28;13.30;99.90
16663;DHT22;8445;51.270;9.434;2023-08-06T02:39:54;13.40;99.90
16663;DHT22;8445;51.270;9.434;2023-08-06T02:42:19;13.40;99.90
16663;DHT22;8445;51.270;9.434;2023-08-06T02:44:45;13.50;99.90
16663;DHT22;8445;51.270;9.434;2023-08-06T02:47:11;13.40;99.90
16663;DHT22;8445;51.270;9.434;2023-08-06T02:49:37;13.30;99.90
16663;DHT22;8445;51.270;9.434;2023-08-06T02:52:04;13.20;99.90
16663;DHT22;8445;51.270;9.434;2023-08-06T02:54:30;13.10;99.90
16663;DHT22;8445;51.270;9.434;2023-08-06T02:56:56;13.10;99.90
16663;DHT22;8445;51.270;9.434;2023-08-06T02:59:30;13.20;99.90
16663;DHT22;8445;51.270;9.434;2023-08-06T03:02:18;13.20;99.90
16663;DHT22;8445;51.270;9.434;2023-08-06T03:04:57;13.20;99.90
16663;DHT22;8445;51.270;9.434;2023-08-06T03:07:27;13.20;99.90
16663;DHT22;8445;51.270;9.434;2023-08-06T03:09:59;13.30;99.90
16663;DHT22;8445;51.270;9.434;2023-08-06T03:12:27;13.30;99.90
16663;DHT22;8445;51.270;9.434;2023-08-06T03:14:54;13.40;99.90
16663;DHT22;8445;51.270;9.434;2023-08-06T03:17:20;13.40;99.90
16663;DHT22;8445;51.270;9.434;2023-08-06T03:19:47;13.40;99.90
16663;DHT22;8445;51.270;9.434;2023-08-06T03:22:14;13.50;99.90
16663;DHT22;8445;51.270;9.434;2023-08-06T03:24:40;13.60;99.90
16663;DHT22;8445;51.270;9.434;2023-08-06T03:27:07;13.60;99.90
16663;DHT22;8445;51.270;9.434;2023-08-06T03:29:33;13.70;99.90
16663;DHT22;8445;51.270;9.434;2023-08-06T03:32:00;13.70;99.90
16663;DHT22;8445;51.270;9.434;2023-08-06T03:34:27;13.70;99.90
16663;DHT22;8445;51.270;9.434;2023-08-06T03:36:53;13.80;99.90
16663;DHT22;8445;51.270;9.434;2023-08-06T03:39:19;13.80;99.90
16663;DHT22;8445;51.270;9.434;2023-08-06T03:41:45;13.80;99.90
16663;DHT22;8445;51.270;9.434;2023-08-06T03:44:11;13.90;99.90
16663;DHT22;8445;51.270;9.434;2023-08-06T03:46:37;13.90;99.90
16663;DHT22;8445;51.270;9.434;2023-08-06T03:49:05;13.90;99.90
16663;DHT22;8445;51.270;9.434;2023-08-06T03:51:31;14.00;99.90
16663;DHT22;8445;51.270;9.434;2023-08-06T03:53:57;14.00;99.90
16663;DHT22;8445;51.270;9.434;2023-08-06T03:56:23;14.10;99.90
16663;DHT22;8445;51.270;9.434;2023-08-06T03:58:49;14.10;99.90
16663;DHT22;8445;51.270;9.434;2023-08-06T04:01:15;14.20;99.90
16663;DHT22;8445;51.270;9.434;2023-08-06T04:03:44;14.20;99.90
16663;DHT22;8445;51.270;9.434;2023-08-06T04:06:10;14.20;99.90
16663;DHT22;8445;51.270;9.434;2023-08-06T04:08:36;14.30;99.90
16663;DHT22;8445;51.270;9.434;2023-08-06T04:11:02;14.30;99.90
16663;DHT22;8445;51.270;9.434;2023-08-06T04:13:29;14.30;99.90
16663;DHT22;8445;51.270;9.434;2023-08-06T04:16:01;14.40;99.90
16663;DHT22;8445;51.270;9.434;2023-08-06T04:18:28;14.40;99.90
16663;DHT22;8445;51.270;9.434;2023-08-06T04:20:55;14.40;99.90
16663;DHT22;8445;51.270;9.434;2023-08-06T04:23:23;14.40;99.90
16663;DHT22;8445;51.270;9.434;2023-08-06T04:25:50;14.50;99.90
16663;DHT22;8445;51.270;9.434;2023-08-06T04:28:16;14.50;99.90
16663;DHT22;8445;51.270;9.434;2023-08-06T04:30:42;14.50;99.90
16663;DHT22;8445;51.270;9.434;2023-08-06T04:33:08;14.60;99.90
16663;DHT22;8445;51.270;9.434;2023-08-06T04:35:35;14.60;99.90
16663;DHT22;8445;51.270;9.434;2023-08-06T04:38:01;14.60;99.90
16663;DHT22;8445;51.270;9.434;2023-08-06T04:40:36;14.60;99.90
16663;DHT22;8445;51.270;9.434;2023-08-06T04:43:04;14.70;99.90
16663;DHT22;8445;51.270;9.434;2023-08-06T04:45:32;14.60;99.90
16663;DHT22;8445;51.270;9.434;2023-08-06T04:47:58;14.60;99.90
16663;DHT22;8445;51.270;9.434;2023-08-06T04:50:25;14.70;99.90
16663;DHT22;8445;51.270;9.434;2023-08-06T04:52:58;14.60;99.90
16663;DHT22;8445;51.270;9.434;2023-08-06T04:55:25;14.70;99.90
16663;DHT22;8445;51.270;9.434;2023-08-06T04:58:08;14.70;99.90
16663;DHT22;8445;51.270;9.434;2023-08-06T05:00:39;14.80;99.90
16663;DHT22;8445;51.270;9.434;2023-08-06T05:03:06;14.80;99.90
16663;DHT22;8445;51.270;9.434;2023-08-06T05:05:34;14.90;99.90
16663;DHT22;8445;51.270;9.434;2023-08-06T05:08:01;14.90;99.90
16663;DHT22;8445;51.270;9.434;2023-08-06T05:10:28;14.90;99.90
16663;DHT22;8445;51.270;9.434;2023-08-06T05:12:56;14.90;99.90
16663;DHT22;8445;51.270;9.434;2023-08-06T05:15:22;15.00;99.90
16663;DHT22;8445;51.270;9.434;2023-08-06T05:17:55;15.00;99.90
16663;DHT22;8445;51.270;9.434;2023-08-06T05:20:21;15.00;99.90
16663;DHT22;8445;51.270;9.434;2023-08-06T05:22:49;15.00;99.90
16663;DHT22;8445;51.270;9.434;2023-08-06T05:25:18;15.00;99.90
16663;DHT22;8445;51.270;9.434;2023-08-06T05:27:48;15.00;99.90
16663;DHT22;8445;51.270;9.434;2023-08-06T05:30:19;15.00;99.90
16663;DHT22;8445;51.270;9.434;2023-08-06T05:32:56;15.00;99.90
16663;DHT22;8445;51.270;9.434;2023-08-06T05:35:24;15.00;99.90
16663;DHT22;8445;51.270;9.434;2023-08-06T05:37:52;15.00;99.90
16663;DHT22;8445;51.270;9.434;2023-08-06T05:40:29;15.20;99.90
16663;DHT22;8445;51.270;9.434;2023-08-06T05:43:01;15.30;99.90
16663;DHT22;8445;51.270;9.434;2023-08-06T05:45:29;15.40;99.90
16663;DHT22;8445;51.270;9.434;2023-08-06T05:47:55;15.60;99.90
16663;DHT22;8445;51.270;9.434;2023-08-06T05:50:24;15.70;99.90
16663;DHT22;8445;51.270;9.434;2023-08-06T05:52:56;15.90;99.90
16663;DHT22;8445;51.270;9.434;2023-08-06T05:55:30;16.00;99.90
16663;DHT22;8445;51.270;9.434;2023-08-06T05:57:58;16.20;99.90
16663;DHT22;8445;51.270;9.434;2023-08-06T06:00:24;16.30;99.90
16663;DHT22;8445;51.270;9.434;2023-08-06T06:02:50;16.50;99.90
16663;DHT22;8445;51.270;9.434;2023-08-06T06:05:17;16.70;99.90
16663;DHT22;8445;51.270;9.434;2023-08-06T06:07:44;16.90;99.90
16663;DHT22;8445;51.270;9.434;2023-08-06T06:10:12;17.10;99.90
16663;DHT22;8445;51.270;9.434;2023-08-06T06:12:40;17.30;99.90
16663;DHT22;8445;51.270;9.434;2023-08-06T06:15:06;17.50;99.90
16663;DHT22;8445;51.270;9.434;2023-08-06T06:17:33;17.60;99.90
16663;DHT22;8445;51.270;9.434;2023-08-06T06:19:59;17.60;99.90
16663;DHT22;8445;51.270;9.434;2023-08-06T06:22:25;17.80;99.90
16663;DHT22;8445;51.270;9.434;2023-08-06T06:24:51;18.00;99.90
16663;DHT22;8445;51.270;9.434;2023-08-06T06:27:16;18.10;99.90
16663;DHT22;8445;51.270;9.434;2023-08-06T06:29:45;18.20;99.90
16663;DHT22;8445;51.270;9.434;2023-08-06T06:32:11;18.10;99.90
16663;DHT22;8445;51.270;9.434;2023-08-06T06:34:36;18.00;99.90
16663;DHT22;8445;51.270;9.434;2023-08-06T06:37:02;17.90;99.90
16663;DHT22;8445;51.270;9.434;2023-08-06T06:39:29;17.80;99.90
16663;DHT22;8445;51.270;9.434;2023-08-06T06:41:54;17.70;99.90
16663;DHT22;8445;51.270;9.434;2023-08-06T06:44:28;17.70;99.90
16663;DHT22;8445;51.270;9.434;2023-08-06T06:46:54;17.80;99.90
16663;DHT22;8445;51.270;9.434;2023-08-06T06:49:20;18.00;99.90
16663;DHT22;8445;51.270;9.434;2023-08-06T06:51:46;18.30;99.90
16663;DHT22;8445;51.270;9.434;2023-08-06T06:54:12;18.60;99.90
16663;DHT22;8445;51.270;9.434;2023-08-06T06:56:38;18.70;99.90
16663;DHT22;8445;51.270;9.434;2023-08-06T06:59:04;18.90;99.90
16663;DHT22;8445;51.270;9.434;2023-08-06T07:01:30;18.90;99.90
16663;DHT22;8445;51.270;9.434;2023-08-06T07:03:55;18.90;99.90
16663;DHT22;8445;51.270;9.434;2023-08-06T07:06:22;18.80;99.90
16663;DHT22;8445;51.270;9.434;2023-08-06T07:08:48;18.60;99.90
16663;DHT22;8445;51.270;9.434;2023-08-06T07:11:14;18.60;99.90
16663;DHT22;8445;51.270;9.434;2023-08-06T07:13:40;18.50;99.90
16663;DHT22;8445;51.270;9.434;2023-08-06T07:16:06;18.40;99.90
16663;DHT22;8445;51.270;9.434;2023-08-06T07:18:32;18.30;99.90
16663;DHT22;8445;51.270;9.434;2023-08-06T07:20:57;18.10;99.90
16663;DHT22;8445;51.270;9.434;2023-08-06T07:23:25;18.00;99.90
16663;DHT22;8445;51.270;9.434;2023-08-06T07:25:52;17.90;99.90
16663;DHT22;8445;51.270;9.434;2023-08-06T07:28:21;18.10;99.90
16663;DHT22;8445;51.270;9.434;2023-08-06T07:30:48;18.30;99.90
16663;DHT22;8445;51.270;9.434;2023-08-06T07:33:15;18.50;99.90
16663;DHT22;8445;51.270;9.434;2023-08-06T07:35:41;18.80;99.90
16663;DHT22;8445;51.270;9.434;2023-08-06T07:38:07;19.20;99.90
16663;DHT22;8445;51.270;9.434;2023-08-06T07:40:34;19.60;99.90
16663;DHT22;8445;51.270;9.434;2023-08-06T07:43:01;20.00;99.90
16663;DHT22;8445;51.270;9.434;2023-08-06T07:45:27;20.40;99.90
16663;DHT22;8445;51.270;9.434;2023-08-06T07:47:53;20.80;99.90
16663;DHT22;8445;51.270;9.434;2023-08-06T07:50:19;21.00;99.90
16663;DHT22;8445;51.270;9.434;2023-08-06T07:52:45;21.10;99.90
16663;DHT22;8445;51.270;9.434;2023-08-06T07:55:11;21.20;99.90
16663;DHT22;8445;51.270;9.434;2023-08-06T07:57:37;21.30;99.90
16663;DHT22;8445;51.270;9.434;2023-08-06T08:00:04;21.50;99.90
16663;DHT22;8445;51.270;9.434;2023-08-06T08:02:38;21.70;99.90
16663;DHT22;8445;51.270;9.434;2023-08-06T08:05:04;21.80;99.90
16663;DHT22;8445;51.270;9.434;2023-08-06T08:07:32;22.00;99.90
16663;DHT22;8445;51.270;9.434;2023-08-06T08:09:58;22.20;99.90
16663;DHT22;8445;51.270;9.434;2023-08-06T08:12:24;22.30;99.90
16663;DHT22;8445;51.270;9.434;2023-08-06T08:14:50;22.30;99.90
16663;DHT22;8445;51.270;9.434;2023-08-06T08:17:16;22.20;99.90
16663;DHT22;8445;51.270;9.434;2023-08-06T08:19:42;21.90;99.90
16663;DHT22;8445;51.270;9.434;2023-08-06T08:22:08;21.60;99.90
16663;DHT22;8445;51.270;9.434;2023-08-06T08:24:35;21.30;99.90
16663;DHT22;8445;51.270;9.434;2023-08-06T08:27:01;21.10;99.90
16663;DHT22;8445;51.270;9.434;2023-08-06T08:29:30;20.90;99.90
16663;DHT22;8445;51.270;9.434;2023-08-06T08:31:57;21.00;99.90
16663;DHT22;8445;51.270;9.434;2023-08-06T08:34:24;21.20;99.90
16663;DHT22;8445;51.270;9.434;2023-08-06T08:36:51;21.60;99.90
16663;DHT22;8445;51.270;9.434;2023-08-06T08:39:18;21.80;99.90
16663;DHT22;8445;51.270;9.434;2023-08-06T08:41:44;21.90;99.90
16663;DHT22;8445;51.270;9.434;2023-08-06T08:44:10;21.80;99.80
16663;DHT22;8445;51.270;9.434;2023-08-06T08:46:40;21.70;99.50
16663;DHT22;8445;51.270;9.434;2023-08-06T08:49:07;21.50;99.10
16663;DHT22;8445;51.270;9.434;2023-08-06T08:51:34;21.40;99.20
16663;DHT22;8445;51.270;9.434;2023-08-06T08:54:03;21.20;98.90
16663;DHT22;8445;51.270;9.434;2023-08-06T08:56:30;21.30;99.40
16663;DHT22;8445;51.270;9.434;2023-08-06T08:58:57;21.40;98.60
16663;DHT22;8445;51.270;9.434;2023-08-06T09:01:23;21.40;98.70
16663;DHT22;8445;51.270;9.434;2023-08-06T09:03:50;21.50;98.30
16663;DHT22;8445;51.270;9.434;2023-08-06T09:06:19;21.50;97.70
16663;DHT22;8445;51.270;9.434;2023-08-06T09:09:06;21.60;97.80
16663;DHT22;8445;51.270;9.434;2023-08-06T09:11:43;21.90;97.00
16663;DHT22;8445;51.270;9.434;2023-08-06T09:14:11;22.20;95.70
16663;DHT22;8445;51.270;9.434;2023-08-06T09:16:38;22.40;96.40
16663;DHT22;8445;51.270;9.434;2023-08-06T09:19:13;22.60;96.10
16663;DHT22;8445;51.270;9.434;2023-08-06T09:21:46;22.80;95.60
16663;DHT22;8445;51.270;9.434;2023-08-06T09:24:16;23.20;95.50
16663;DHT22;8445;51.270;9.434;2023-08-06T09:26:47;23.20;94.40
16663;DHT22;8445;51.270;9.434;2023-08-06T09:29:15;23.20;94.20
16663;DHT22;8445;51.270;9.434;2023-08-06T09:31:45;23.10;93.50
16663;DHT22;8445;51.270;9.434;2023-08-06T09:34:22;23.10;93.80
16663;DHT22;8445;51.270;9.434;2023-08-06T09:36:53;23.40;93.80
16663;DHT22;8445;51.270;9.434;2023-08-06T09:39:30;23.80;93.90
16663;DHT22;8445;51.270;9.434;2023-08-06T09:42:01;24.00;92.20
16663;DHT22;8445;51.270;9.434;2023-08-06T09:44:31;24.30;92.30
16663;DHT22;8445;51.270;9.434;2023-08-06T09:47:03;24.80;91.70
16663;DHT22;8445;51.270;9.434;2023-08-06T09:52:02;25.10;86.80
16663;DHT22;8445;51.270;9.434;2023-08-06T09:54:30;24.80;86.60
16663;DHT22;8445;51.270;9.434;2023-08-06T09:56:58;24.60;87.00
16663;DHT22;8445;51.270;9.434;2023-08-06T09:59:25;24.20;85.60
16663;DHT22;8445;51.270;9.434;2023-08-06T10:01:54;23.80;86.30
16663;DHT22;8445;51.270;9.434;2023-08-06T10:04:24;23.60;86.20
16663;DHT22;8445;51.270;9.434;2023-08-06T10:06:57;23.40;87.40
16663;DHT22;8445;51.270;9.434;2023-08-06T10:09:28;23.20;87.50
16663;DHT22;8445;51.270;9.434;2023-08-06T10:12:04;23.10;87.60
16663;DHT22;8445;51.270;9.434;2023-08-06T10:14:34;23.00;86.60
16663;DHT22;8445;51.270;9.434;2023-08-06T10:17:04;23.00;86.40
16663;DHT22;8445;51.270;9.434;2023-08-06T10:19:32;23.10;86.20
16663;DHT22;8445;51.270;9.434;2023-08-06T10:22:15;23.20;86.60
16663;DHT22;8445;51.270;9.434;2023-08-06T10:24:49;23.40;85.80
16663;DHT22;8445;51.270;9.434;2023-08-06T10:27:35;23.70;83.70
16663;DHT22;8445;51.270;9.434;2023-08-06T10:30:22;23.70;80.70
16663;DHT22;8445;51.270;9.434;2023-08-06T10:32:51;24.00;82.20
16663;DHT22;8445;51.270;9.434;2023-08-06T10:38:15;24.70;81.90
16663;DHT22;8445;51.270;9.434;2023-08-06T10:45:54;25.40;74.90
16663;DHT22;8445;51.270;9.434;2023-08-06T10:48:39;25.50;76.50
16663;DHT22;8445;51.270;9.434;2023-08-06T10:51:11;25.70;71.60
16663;DHT22;8445;51.270;9.434;2023-08-06T10:53:43;25.90;74.60
16663;DHT22;8445;51.270;9.434;2023-08-06T10:56:14;26.00;73.20
16663;DHT22;8445;51.270;9.434;2023-08-06T10:58:41;26.20;71.70
16663;DHT22;8445;51.270;9.434;2023-08-06T11:01:09;26.30;70.90
16663;DHT22;8445;51.270;9.434;2023-08-06T11:03:37;26.40;68.10
16663;DHT22;8445;51.270;9.434;2023-08-06T11:06:04;26.30;69.10
16663;DHT22;8445;51.270;9.434;2023-08-06T11:08:42;26.40;68.50
16663;DHT22;8445;51.270;9.434;2023-08-06T11:11:15;26.70;65.80
16663;DHT22;8445;51.270;9.434;2023-08-06T11:13:44;26.90;65.80
16663;DHT22;8445;51.270;9.434;2023-08-06T11:16:15;26.80;65.20
16663;DHT22;8445;51.270;9.434;2023-08-06T11:18:43;26.70;63.60
16663;DHT22;8445;51.270;9.434;2023-08-06T11:21:09;26.60;63.10
16663;DHT22;8445;51.270;9.434;2023-08-06T11:23:36;26.50;63.20
16663;DHT22;8445;51.270;9.434;2023-08-06T11:26:02;26.50;62.30
16663;DHT22;8445;51.270;9.434;2023-08-06T11:28:29;26.40;61.70
16663;DHT22;8445;51.270;9.434;2023-08-06T11:30:55;26.40;61.30
16663;DHT22;8445;51.270;9.434;2023-08-06T11:33:24;26.30;60.30
16663;DHT22;8445;51.270;9.434;2023-08-06T11:35:58;26.10;59.70
16663;DHT22;8445;51.270;9.434;2023-08-06T11:38:26;26.00;59.00
16663;DHT22;8445;51.270;9.434;2023-08-06T11:40:56;26.00;58.60
16663;DHT22;8445;51.270;9.434;2023-08-06T11:43:24;25.70;58.70
16663;DHT22;8445;51.270;9.434;2023-08-06T11:45:51;25.40;58.10
16663;DHT22;8445;51.270;9.434;2023-08-06T11:48:19;25.20;59.00
16663;DHT22;8445;51.270;9.434;2023-08-06T11:50:45;25.20;59.80
16663;DHT22;8445;51.270;9.434;2023-08-06T11:53:14;25.20;59.40
16663;DHT22;8445;51.270;9.434;2023-08-06T11:55:41;25.20;58.20
16663;DHT22;8445;51.270;9.434;2023-08-06T11:58:09;25.30;58.10
16663;DHT22;8445;51.270;9.434;2023-08-06T12:00:40;25.30;57.40
16663;DHT22;8445;51.270;9.434;2023-08-06T12:03:07;25.40;57.30
16663;DHT22;8445;51.270;9.434;2023-08-06T12:05:35;25.50;55.20
16663;DHT22;8445;51.270;9.434;2023-08-06T12:08:02;25.50;56.50
16663;DHT22;8445;51.270;9.434;2023-08-06T12:10:30;25.80;56.90
16663;DHT22;8445;51.270;9.434;2023-08-06T12:12:57;25.90;57.00
16663;DHT22;8445;51.270;9.434;2023-08-06T12:15:23;26.00;56.80
16663;DHT22;8445;51.270;9.434;2023-08-06T12:17:49;26.00;56.70
16663;DHT22;8445;51.270;9.434;2023-08-06T12:20:16;25.90;56.20
16663;DHT22;8445;51.270;9.434;2023-08-06T12:22:42;25.70;56.40
16663;DHT22;8445;51.270;9.434;2023-08-06T12:25:09;25.40;56.80
16663;DHT22;8445;51.270;9.434;2023-08-06T12:27:39;25.20;57.00
16663;DHT22;8445;51.270;9.434;2023-08-06T12:30:13;25.10;57.20
16663;DHT22;8445;51.270;9.434;2023-08-06T12:32:40;24.90;57.20
16663;DHT22;8445;51.270;9.434;2023-08-06T12:35:07;24.80;57.80
16663;DHT22;8445;51.270;9.434;2023-08-06T12:37:38;24.90;58.10
16663;DHT22;8445;51.270;9.434;2023-08-06T12:40:05;24.80;58.20
16663;DHT22;8445;51.270;9.434;2023-08-06T12:42:32;24.70;58.20
16663;DHT22;8445;51.270;9.434;2023-08-06T12:45:06;24.60;57.90
16663;DHT22;8445;51.270;9.434;2023-08-06T12:47:35;24.40;58.20
16663;DHT22;8445;51.270;9.434;2023-08-06T12:50:09;24.10;59.00
16663;DHT22;8445;51.270;9.434;2023-08-06T12:52:39;23.90;59.90
16663;DHT22;8445;51.270;9.434;2023-08-06T12:55:07;23.60;60.70
16663;DHT22;8445;51.270;9.434;2023-08-06T12:57:35;23.40;61.30
16663;DHT22;8445;51.270;9.434;2023-08-06T13:00:04;23.20;62.20
16663;DHT22;8445;51.270;9.434;2023-08-06T13:02:31;22.90;63.70
16663;DHT22;8445;51.270;9.434;2023-08-06T13:05:04;22.50;65.40
16663;DHT22;8445;51.270;9.434;2023-08-06T13:07:32;22.10;67.70
16663;DHT22;8445;51.270;9.434;2023-08-06T13:10:06;21.80;70.10
16663;DHT22;8445;51.270;9.434;2023-08-06T13:12:36;21.40;73.90
16663;DHT22;8445;51.270;9.434;2023-08-06T13:15:05;21.10;75.80
16663;DHT22;8445;51.270;9.434;2023-08-06T13:17:37;21.00;77.80
16663;DHT22;8445;51.270;9.434;2023-08-06T13:20:05;20.90;80.30
16663;DHT22;8445;51.270;9.434;2023-08-06T13:22:32;20.80;82.20
16663;DHT22;8445;51.270;9.434;2023-08-06T13:24:59;21.00;85.00
16663;DHT22;8445;51.270;9.434;2023-08-06T13:27:28;21.20;85.10
16663;DHT22;8445;51.270;9.434;2023-08-06T13:29:57;21.40;85.50
16663;DHT22;8445;51.270;9.434;2023-08-06T13:32:25;21.60;85.10
16663;DHT22;8445;51.270;9.434;2023-08-06T13:34:51;21.70;84.70
16663;DHT22;8445;51.270;9.434;2023-08-06T13:37:18;22.00;85.00
16663;DHT22;8445;51.270;9.434;2023-08-06T13:39:45;22.30;84.30
16663;DHT22;8445;51.270;9.434;2023-08-06T13:42:14;22.60;83.30
16663;DHT22;8445;51.270;9.434;2023-08-06T13:44:44;22.90;83.50
16663;DHT22;8445;51.270;9.434;2023-08-06T13:47:11;23.20;83.30
16663;DHT22;8445;51.270;9.434;2023-08-06T13:49:39;23.40;82.50
16663;DHT22;8445;51.270;9.434;2023-08-06T13:52:11;23.60;82.40
16663;DHT22;8445;51.270;9.434;2023-08-06T13:54:41;23.70;82.60
16663;DHT22;8445;51.270;9.434;2023-08-06T13:57:12;23.80;81.90
16663;DHT22;8445;51.270;9.434;2023-08-06T13:59:43;23.80;80.80
16663;DHT22;8445;51.270;9.434;2023-08-06T14:02:11;23.60;80.30
16663;DHT22;8445;51.270;9.434;2023-08-06T14:04:40;23.50;81.00
16663;DHT22;8445;51.270;9.434;2023-08-06T14:07:07;23.50;82.40
16663;DHT22;8445;51.270;9.434;2023-08-06T14:09:37;23.40;81.90
16663;DHT22;8445;51.270;9.434;2023-08-06T14:12:04;23.20;81.20
16663;DHT22;8445;51.270;9.434;2023-08-06T14:14:32;23.00;80.70
16663;DHT22;8445;51.270;9.434;2023-08-06T14:17:00;22.80;82.20
16663;DHT22;8445;51.270;9.434;2023-08-06T14:19:28;22.50;81.10
16663;DHT22;8445;51.270;9.434;2023-08-06T14:21:56;22.30;82.30
16663;DHT22;8445;51.270;9.434;2023-08-06T14:24:25;22.00;83.80
16663;DHT22;8445;51.270;9.434;2023-08-06T14:26:52;21.90;84.60
16663;DHT22;8445;51.270;9.434;2023-08-06T14:29:19;21.80;85.20
16663;DHT22;8445;51.270;9.434;2023-08-06T14:31:50;21.70;85.50
16663;DHT22;8445;51.270;9.434;2023-08-06T14:34:18;21.60;86.10
16663;DHT22;8445;51.270;9.434;2023-08-06T14:36:44;21.60;86.70
16663;DHT22;8445;51.270;9.434;2023-08-06T14:39:10;21.70;86.90
16663;DHT22;8445;51.270;9.434;2023-08-06T14:41:46;21.80;86.10
16663;DHT22;8445;51.270;9.434;2023-08-06T14:44:16;21.90;85.80
16663;DHT22;8445;51.270;9.434;2023-08-06T14:46:43;21.80;85.30
16663;DHT22;8445;51.270;9.434;2023-08-06T14:49:10;21.70;85.70
16663;DHT22;8445;51.270;9.434;2023-08-06T14:51:39;21.40;84.70
16663;DHT22;8445;51.270;9.434;2023-08-06T14:54:08;21.20;85.30
16663;DHT22;8445;51.270;9.434;2023-08-06T14:56:36;20.90;86.50
16663;DHT22;8445;51.270;9.434;2023-08-06T14:59:06;20.70;88.50
16663;DHT22;8445;51.270;9.434;2023-08-06T15:01:35;20.70;90.10
16663;DHT22;8445;51.270;9.434;2023-08-06T15:04:03;20.60;90.00
16663;DHT22;8445;51.270;9.434;2023-08-06T15:06:36;20.70;90.50
16663;DHT22;8445;51.270;9.434;2023-08-06T15:09:07;20.80;90.90
16663;DHT22;8445;51.270;9.434;2023-08-06T15:11:37;21.00;91.00
16663;DHT22;8445;51.270;9.434;2023-08-06T15:14:04;21.00;90.60
16663;DHT22;8445;51.270;9.434;2023-08-06T15:16:34;21.10;90.70
16663;DHT22;8445;51.270;9.434;2023-08-06T15:19:01;21.30;90.70
16663;DHT22;8445;51.270;9.434;2023-08-06T15:21:28;21.30;90.30
16663;DHT22;8445;51.270;9.434;2023-08-06T15:23:59;21.30;90.00
16663;DHT22;8445;51.270;9.434;2023-08-06T15:26:31;21.20;90.10
16663;DHT22;8445;51.270;9.434;2023-08-06T15:28:59;21.20;90.30
16663;DHT22;8445;51.270;9.434;2023-08-06T15:31:36;21.20;90.50
16663;DHT22;8445;51.270;9.434;2023-08-06T15:34:13;21.30;90.80
16663;DHT22;8445;51.270;9.434;2023-08-06T15:36:39;21.40;90.30
16663;DHT22;8445;51.270;9.434;2023-08-06T15:39:05;21.50;90.10
16663;DHT22;8445;51.270;9.434;2023-08-06T15:41:31;21.40;90.00
16663;DHT22;8445;51.270;9.434;2023-08-06T15:43:57;21.30;89.50
16663;DHT22;8445;51.270;9.434;2023-08-06T15:46:22;21.00;89.60
16663;DHT22;8445;51.270;9.434;2023-08-06T15:48:48;20.80;89.90
16663;DHT22;8445;51.270;9.434;2023-08-06T15:51:14;20.50;90.30
16663;DHT22;8445;51.270;9.434;2023-08-06T15:53:40;20.20;90.60
16663;DHT22;8445;51.270;9.434;2023-08-06T15:56:06;19.80;89.30
16663;DHT22;8445;51.270;9.434;2023-08-06T15:58:32;19.30;87.50
16663;DHT22;8445;51.270;9.434;2023-08-06T16:00:58;18.90;88.00
16663;DHT22;8445;51.270;9.434;2023-08-06T16:03:24;18.00;94.50
16663;DHT22;8445;51.270;9.434;2023-08-06T16:05:49;16.80;99.30